Vanndale, AR (72387)

1:29 PM CDT on August 21, 2014 (GMT -0500)
Boward and Wofford | Change Station
CLOSE
Current Station
Personal Weather Station
Location: Waldenburg, AR
Elevation: 243 ft
Nearby Weather Stations

Elev 243 ft 35.57 °N, 90.90 °W | Updated 9 minutes ago

Scattered Clouds
Scattered Clouds
91.1 °F
Feels Like 105 °F
N
11.0
Wind Variable Wind from SW
Gusts 14.0 mph

Today
High -- | Low -- °F
--% Chance of Precip.
Yesterday
High -- | Low -- °F
Precip. -- in
6:27 AM 7:44 PM
Waning Crescent, 13% visible
Pressure 30.07 in
Visibility 10.0 miles
Clouds Scattered Clouds 3700 ft
Heat Index 105 °F
Dew Point 77 °F
Humidity 64%
Rainfall 0.00 in
Snow Depth Not available.
UV 9 out of 12
Pollen 9.30 out of 12
Air Quality Not available.
Flu Activity Not available.
METAR KAWM 211753Z AUTO 22006KT 10SM SCT037 32/24 A3008 RMK AO2 SLP181 T03220244 10322 20233 58005

More Conditions Fewer Conditions

Pressure 30.07 in
Visibility 10.0 miles
Clouds Scattered Clouds 3700 ft
Heat Index 105 °F
Dew Point 77 °F
Humidity 64%
Rainfall 0.00 in
Snow Depth Not available.
UV 9 out of 12
Pollen 9.30 out of 12
Air Quality Not available.
Flu Activity Not available.
METAR KAWM 211753Z AUTO 22006KT 10SM SCT037 32/24 A3008 RMK AO2 SLP181 T03220244 10322 20233 58005

More Conditions Fewer Conditions

10-Day Weather Forecast

Almanac

Astronomy

Aug. 21, 2014 Rise Set
Actual Time 6:27 AM CDT 7:44 PM CDT
Civil Twilight 6:00 AM CDT 8:11 PM CDT
Nautical Twilight 5:29 AM CDT 8:42 PM CDT
Astronomical Twilight 4:56 AM CDT 9:15 PM CDT
Moon 3:01 AM CDT 5:10 PM CDT
Length of Visible Light 14h 10m
Length of Day
13h 17m
Tomorrow will be 2m 1s shorter.
Waning Crescent, 13% of the Moon is Illuminated
Today
Waning Crescent
Aug 25
New
Sep 2
First Quarter
Sep 8
Full
Sep 15
Last Quarter

Today's Extremes

State Highs State Lows

Community

WunderPhotos

Upload Photos

1,745,992 photos uploaded!

WunderBlogs® & News

Nearby

Snow Depth

Station Depth Elevation
No new snow has been reported.

Earthquake Activity

City Distance Mag. Time & Date
No recent earthquake activity has been reported nearby.
Minimum magnitude displayed is 2.5.

Coastal Water Temperatures

Place Temperature
No Stations Reporting

Nearby Weather Stations